CPX326 Details

Departure: Robert L. Stanfield International Airport (CYHZ)
Arrival: Miami International Airport (KMIA) at N/A
Route: YQI J585 ACK J62 JOANI SAWED J209 ORF J174 DIW SEELO AR22 JORAY HILEY7
Notes: LOBSTER KING


Current Weather Information
CYHZ 191700Z 18007KT 2SM -DZ BR OVC003 21/21 A3002 RMK ST8 VIS HIER W-N SLP168 DENSITY ALT 1200FT
KMIA 191701Z 09018KT 10SM -TSRA BKN035CB BKN100 BKN250 31/19 A3006 RMK AO2 RAB1656 TSB1655 OCNL LTGICCG E TS E MOV W P0000 T03110194